Time;durP1;ratioP1;P1;durP2;ratioP2;P2;SDS_P1;SDS_P2;PMS_P1;PMS_P2;Temp;Humidity;BMP_temperature;BMP_pressure;BME280_temperature;BME280_humidity;BME280_pressure;Samples;Min_cycle;Max_cycle;Signal;HPM_P1;HPM_P2
2022/07/24 00:00:53;;;;;;;11.40;6.43;;;;;;;18.10;66.94;99932.50;5042840;28;20048;-68
2022/07/24 00:03:19;;;;;;;9.48;6.13;;;;;;;18.15;66.36;99935.66;5033597;28;20053;-66
2022/07/24 00:05:46;;;;;;;10.27;5.38;;;;;;;18.15;66.49;99937.47;5022163;28;20699;-67
2022/07/24 00:08:12;;;;;;;5.85;5.03;;;;;;;18.15;65.91;99935.66;5026488;28;20057;-67
2022/07/24 00:10:39;;;;;;;10.02;6.32;;;;;;;18.17;65.83;99939.06;5042351;28;20055;-65
2022/07/24 00:13:06;;;;;;;7.10;5.07;;;;;;;18.17;66.54;99936.38;5043013;28;20088;-66
2022/07/24 00:15:32;;;;;;;8.80;5.65;;;;;;;18.14;66.41;99939.31;5038124;28;20056;-67
2022/07/24 00:18:00;;;;;;;8.82;5.45;;;;;;;18.14;66.39;99936.63;5023208;28;20049;-66
2022/07/24 00:20:27;;;;;;;7.40;4.90;;;;;;;18.15;65.87;99941.00;5022192;28;20049;-66
2022/07/24 00:22:53;;;;;;;7.20;5.75;;;;;;;18.13;66.31;99934.06;5022582;28;20045;-66
2022/07/24 00:25:20;;;;;;;8.60;5.63;;;;;;;18.10;66.25;99929.84;5022442;28;20060;-66
2022/07/24 00:27:47;;;;;;;8.10;5.63;;;;;;;18.11;66.43;99933.34;5021115;28;20056;-66
2022/07/24 00:30:14;;;;;;;7.80;5.53;;;;;;;18.11;66.53;99931.50;5022428;28;20053;-66
2022/07/24 00:32:40;;;;;;;11.10;5.70;;;;;;;18.12;66.28;99925.22;5022748;28;20484;-67
2022/07/24 00:35:09;;;;;;;7.85;6.78;;;;;;;18.10;66.27;99920.97;5022193;28;20053;-66
2022/07/24 00:37:35;;;;;;;7.15;6.45;;;;;;;18.10;65.89;99919.16;5022848;28;20539;-66
2022/07/24 00:40:02;;;;;;;10.48;7.22;;;;;;;18.11;66.35;99923.50;5022504;28;20052;-67
2022/07/24 00:42:29;;;;;;;8.30;6.25;;;;;;;18.12;66.23;99924.38;5025245;28;20049;-67
2022/07/24 00:44:55;;;;;;;11.60;8.48;;;;;;;18.14;65.80;99933.97;5026054;28;20049;-67
2022/07/24 00:47:22;;;;;;;7.90;6.65;;;;;;;18.14;65.81;99930.41;5013300;28;20065;-67
2022/07/24 00:49:48;;;;;;;10.15;7.60;;;;;;;18.14;66.12;99933.97;5007065;28;20417;-67
2022/07/24 00:52:16;;;;;;;7.80;7.00;;;;;;;18.12;65.71;99932.38;5006891;28;20080;-67
2022/07/24 00:54:43;;;;;;;8.70;6.68;;;;;;;18.10;65.99;99937.00;5006552;28;20050;-67
2022/07/24 00:57:09;;;;;;;9.43;6.95;;;;;;;18.09;65.88;99932.59;5006496;28;20050;-66
2022/07/24 00:59:36;;;;;;;10.80;7.95;;;;;;;18.10;65.64;99931.66;5006537;28;20049;-68
2022/07/24 01:02:03;;;;;;;9.98;7.18;;;;;;;18.06;66.22;99931.03;4939071;28;20148;-67
2022/07/24 01:04:30;;;;;;;12.60;7.53;;;;;;;18.08;65.94;99929.09;4915701;28;20064;-67
2022/07/24 01:06:56;;;;;;;9.00;7.40;;;;;;;18.10;65.93;99926.31;4935614;28;20080;-66
2022/07/24 01:09:25;;;;;;;8.18;6.63;;;;;;;18.13;66.47;99921.56;4955196;28;20056;-67
2022/07/24 01:11:52;;;;;;;7.68;6.15;;;;;;;18.13;66.18;99923.41;4955303;28;20056;-67
2022/07/24 01:14:19;;;;;;;9.23;6.95;;;;;;;18.15;65.91;99927.66;4944400;28;20072;-67
2022/07/24 01:16:46;;;;;;;7.38;5.18;;;;;;;18.19;64.97;99934.44;4932680;28;20416;-67
2022/07/24 01:19:12;;;;;;;8.75;5.40;;;;;;;18.26;65.34;99921.44;4925971;28;20054;-66
2022/07/24 01:21:45;;;;;;;7.60;5.25;;;;;;;18.27;64.75;99917.84;4926505;28;20053;-67
2022/07/24 01:24:12;;;;;;;8.63;5.53;;;;;;;18.30;64.31;99917.56;4925582;28;20064;-66
2022/07/24 01:26:38;;;;;;;8.73;5.10;;;;;;;18.33;64.85;99913.81;4939817;28;20059;-67
2022/07/24 01:29:05;;;;;;;9.75;6.72;;;;;;;18.32;64.92;99920.97;4946135;28;20053;-67
2022/07/24 01:31:31;;;;;;;8.82;5.43;;;;;;;18.31;64.50;99913.09;4928011;28;20527;-66
2022/07/24 01:33:58;;;;;;;11.55;6.65;;;;;;;18.31;65.00;99918.41;4927524;28;20052;-67
2022/07/24 01:36:24;;;;;;;7.00;6.05;;;;;;;18.30;64.52;99914.06;4927662;28;20065;-66
2022/07/24 01:38:52;;;;;;;6.55;5.40;;;;;;;18.33;63.71;99911.16;4917728;28;20080;-67
2022/07/24 01:41:19;;;;;;;9.00;4.65;;;;;;;18.37;63.15;99910.78;4917000;28;20065;-66
2022/07/24 01:43:45;;;;;;;8.07;5.72;;;;;;;18.45;62.98;99912.84;4917124;28;20062;-66
2022/07/24 01:46:12;;;;;;;5.68;4.53;;;;;;;18.50;62.85;99904.47;4917068;28;20057;-67
2022/07/24 01:48:39;;;;;;;7.40;5.55;;;;;;;18.49;63.01;99903.63;4927911;28;20675;-67
2022/07/24 01:51:06;;;;;;;9.13;5.57;;;;;;;18.47;63.55;99913.56;4941831;28;20058;-67
2022/07/24 01:53:32;;;;;;;7.60;6.18;;;;;;;18.42;63.73;99910.41;4913793;28;20211;-67
2022/07/24 01:56:00;;;;;;;7.03;5.75;;;;;;;18.41;63.74;99903.38;4916693;28;20720;-66
2022/07/24 01:58:27;;;;;;;5.85;5.10;;;;;;;18.45;63.90;99894.16;4917089;28;20061;-66
2022/07/24 02:00:53;;;;;;;7.93;5.07;;;;;;;18.46;64.21;99893.19;4919608;28;20141;-66
2022/07/24 02:03:20;;;;;;;7.78;5.68;;;;;;;18.47;63.38;99897.56;4919898;28;20513;-66
2022/07/24 02:05:47;;;;;;;6.13;4.53;;;;;;;18.46;62.61;99887.84;4920685;28;20061;-66
2022/07/24 02:08:14;;;;;;;6.57;5.47;;;;;;;18.47;63.25;99897.56;4925166;28;20063;-67
2022/07/24 02:10:40;;;;;;;13.15;6.07;;;;;;;18.36;63.59;99901.09;4940926;28;20524;-67
2022/07/24 02:13:08;;;;;;;8.48;5.47;;;;;;;18.34;63.60;99902.19;4948147;28;20059;-67
2022/07/24 02:15:35;;;;;;;9.93;4.93;;;;;;;18.36;63.71;99900.22;4959644;28;20060;-66
2022/07/24 02:18:02;;;;;;;6.55;4.43;;;;;;;18.38;63.81;99890.28;4927943;28;20053;-66
2022/07/24 02:20:29;;;;;;;6.45;5.63;;;;;;;18.39;63.31;99895.50;4915904;28;20053;-66
2022/07/24 02:22:56;;;;;;;9.25;5.70;;;;;;;18.37;63.58;99891.25;4915885;28;20059;-66
2022/07/24 02:25:23;;;;;;;9.77;5.32;;;;;;;18.38;63.37;99898.28;4916283;28;20078;-66
2022/07/24 02:27:50;;;;;;;6.80;5.03;;;;;;;18.36;63.72;99889.53;4916424;28;20077;-66
2022/07/24 02:30:20;;;;;;;8.13;5.90;;;;;;;18.32;63.57;99894.28;4915593;28;20429;-67
2022/07/24 02:32:47;;;;;;;6.97;5.10;;;;;;;18.30;64.07;99890.03;4915941;28;20096;-67
2022/07/24 02:35:14;;;;;;;6.10;5.32;;;;;;;18.28;63.87;99897.31;4915592;28;20057;-65
2022/07/24 02:37:42;;;;;;;8.00;5.00;;;;;;;18.29;63.81;99891.03;4915292;28;20635;-66
2022/07/24 02:40:11;;;;;;;6.20;5.45;;;;;;;18.30;64.11;99901.56;4914743;28;20058;-66
2022/07/24 02:42:38;;;;;;;10.18;5.68;;;;;;;18.28;63.86;99898.16;4914388;28;20057;-65
2022/07/24 02:45:06;;;;;;;7.57;4.93;;;;;;;18.26;64.13;99888.59;4935254;28;20066;-65
2022/07/24 02:47:34;;;;;;;7.40;4.65;;;;;;;18.26;64.55;99891.25;4951687;28;20055;-66
2022/07/24 02:50:01;;;;;;;9.80;5.80;;;;;;;18.21;64.88;99892.50;4957525;28;20069;-65
2022/07/24 02:52:28;;;;;;;6.85;5.63;;;;;;;18.17;64.69;99890.19;4931301;28;20056;-66
2022/07/24 02:54:54;;;;;;;11.45;6.65;;;;;;;18.14;65.22;99887.72;4934330;28;20056;-66
2022/07/24 02:57:21;;;;;;;6.10;5.22;;;;;;;18.12;65.00;99885.19;4934485;28;20057;-66
2022/07/24 02:59:51;;;;;;;14.77;6.68;;;;;;;18.13;64.80;99883.38;4934725;28;20053;-66
2022/07/24 03:02:18;;;;;;;8.80;5.18;;;;;;;18.11;65.29;99878.16;4934295;28;20571;-66
2022/07/24 03:04:46;;;;;;;9.40;5.82;;;;;;;18.10;65.15;99884.47;4932877;28;20060;-66
2022/07/24 03:07:12;;;;;;;8.05;5.15;;;;;;;18.10;65.07;99880.97;4930977;28;20596;-66
2022/07/24 03:09:39;;;;;;;11.10;5.68;;;;;;;18.09;64.70;99880.13;4947747;28;20054;-66
2022/07/24 03:12:06;;;;;;;5.80;4.57;;;;;;;18.10;64.88;99888.97;4952905;28;20060;-67
2022/07/24 03:14:33;;;;;;;8.00;5.32;;;;;;;18.08;64.91;99897.06;4952873;28;20076;-67
2022/07/24 03:17:00;;;;;;;7.90;5.50;;;;;;;18.07;65.14;99899.88;4950683;28;20061;-67
2022/07/24 03:19:26;;;;;;;9.88;6.32;;;;;;;18.03;65.64;99891.25;4924443;28;20061;-66
2022/07/24 03:21:54;;;;;;;7.00;5.45;;;;;;;18.02;66.21;99892.25;4924552;28;20054;-66
2022/07/24 03:24:21;;;;;;;7.07;5.32;;;;;;;17.97;66.19;99889.94;4925139;28;20065;-66
2022/07/24 03:26:47;;;;;;;10.18;5.63;;;;;;;17.98;66.36;99891.63;4924730;28;20061;-67
2022/07/24 03:29:14;;;;;;;7.43;5.53;;;;;;;17.98;65.95;99899.63;4924219;28;20050;-66
2022/07/24 03:31:40;;;;;;;9.13;5.93;;;;;;;17.97;66.24;99884.59;4925169;28;20517;-67
2022/07/24 03:34:07;;;;;;;6.82;5.25;;;;;;;17.98;66.39;99883.63;4923591;28;20060;-67
2022/07/24 03:36:33;;;;;;;10.02;6.47;;;;;;;17.92;66.79;99884.09;4933682;28;20053;-67
2022/07/24 03:39:02;;;;;;;10.23;6.35;;;;;;;17.88;67.01;99885.31;4933437;28;20053;-67
2022/07/24 03:41:28;;;;;;;7.35;6.10;;;;;;;17.88;66.67;99889.78;4933843;28;20143;-67
2022/07/24 03:43:55;;;;;;;9.52;6.85;;;;;;;17.85;67.23;99890.88;4933419;28;20049;-66
2022/07/24 03:46:22;;;;;;;7.43;5.70;;;;;;;17.87;67.28;99886.28;4933022;28;20061;-66
2022/07/24 03:48:48;;;;;;;7.72;6.13;;;;;;;17.86;67.19;99887.25;4932831;28;20721;-66
2022/07/24 03:51:15;;;;;;;9.35;6.03;;;;;;;17.87;67.51;99891.63;4933147;28;20088;-66
2022/07/24 03:53:42;;;;;;;8.18;6.50;;;;;;;17.86;67.35;99892.56;4932986;28;20546;-66
2022/07/24 03:56:11;;;;;;;6.43;4.68;;;;;;;17.87;67.13;99888.06;4936873;28;20119;-66
2022/07/24 03:58:38;;;;;;;9.27;6.25;;;;;;;17.89;66.98;99888.81;4938640;28;20539;-66
2022/07/24 04:01:04;;;;;;;8.40;5.63;;;;;;;17.91;67.66;99892.22;4947362;28;20148;-66
2022/07/24 04:03:31;;;;;;;8.95;6.45;;;;;;;17.92;67.52;99888.59;4944906;28;20053;-67
2022/07/24 04:05:57;;;;;;;8.65;6.50;;;;;;;17.90;67.63;99886.03;4937541;28;20123;-67
2022/07/24 04:08:24;;;;;;;6.57;5.55;;;;;;;17.90;67.78;99886.03;4938787;28;20048;-66
2022/07/24 04:10:56;;;;;;;8.68;5.63;;;;;;;17.92;67.82;99885.94;4953399;28;20087;-66
2022/07/24 04:13:24;;;;;;;8.35;5.55;;;;;;;17.93;67.74;99893.78;4950245;28;20120;-66
2022/07/24 04:15:51;;;;;;;8.10;6.18;;;;;;;17.95;67.71;99896.34;4952248;28;20475;-66
2022/07/24 04:18:17;;;;;;;8.60;6.20;;;;;;;18.03;65.62;99897.44;4934311;28;20076;-66
2022/07/24 04:20:44;;;;;;;7.78;6.28;;;;;;;18.18;65.16;99907.88;4925110;28;20780;-66
2022/07/24 04:23:11;;;;;;;7.85;5.47;;;;;;;18.33;64.84;99905.81;4925184;28;20046;-66
2022/07/24 04:25:37;;;;;;;7.90;5.55;;;;;;;18.39;65.54;99905.34;4925878;28;20105;-67
2022/07/24 04:28:05;;;;;;;15.43;7.75;;;;;;;18.36;66.18;99906.44;4929621;28;20060;-66
2022/07/24 04:30:33;;;;;;;6.63;5.55;;;;;;;18.33;66.19;99906.66;4925841;28;20050;-66
2022/07/24 04:32:59;;;;;;;9.77;6.15;;;;;;;18.34;66.40;99905.69;4924327;28;20064;-67
2022/07/24 04:35:26;;;;;;;6.55;5.35;;;;;;;18.35;66.25;99906.53;4924577;28;20061;-66
2022/07/24 04:37:52;;;;;;;8.43;5.18;;;;;;;18.40;65.88;99902.53;4924311;28;20054;-66
2022/07/24 04:40:19;;;;;;;7.57;5.90;;;;;;;18.45;66.17;99900.34;4923920;28;20061;-66
2022/07/24 04:42:46;;;;;;;6.43;5.20;;;;;;;18.57;65.54;99903.84;4924373;28;20085;-66
2022/07/24 04:45:12;;;;;;;6.13;5.25;;;;;;;18.66;64.72;99907.59;4925326;28;20062;-67
2022/07/24 04:47:40;;;;;;;7.43;5.50;;;;;;;18.65;65.10;99908.56;4923726;28;20072;-67
2022/07/24 04:50:09;;;;;;;7.88;6.82;;;;;;;18.68;65.12;99903.00;4932794;28;20058;-67
2022/07/24 04:52:36;;;;;;;9.77;6.65;;;;;;;18.73;63.48;99900.78;4932209;28;20061;-66
2022/07/24 04:55:02;;;;;;;8.55;5.95;;;;;;;18.80;63.25;99898.47;4931924;28;20054;-67
2022/07/24 04:57:29;;;;;;;10.68;6.78;;;;;;;18.84;64.22;99899.94;4948020;28;20063;-67
2022/07/24 04:59:55;;;;;;;8.00;6.45;;;;;;;18.87;62.82;99899.69;4946988;28;20045;-67
2022/07/24 05:02:22;;;;;;;8.90;6.38;;;;;;;18.91;63.43;99902.97;4930592;28;20065;-67
2022/07/24 05:04:50;;;;;;;14.23;5.82;;;;;;;18.94;63.74;99908.03;4932031;28;20045;-67
2022/07/24 05:07:16;;;;;;;6.07;4.82;;;;;;;18.96;64.08;99906.09;4932626;28;20057;-67
2022/07/24 05:09:43;;;;;;;9.60;5.93;;;;;;;19.01;64.75;99909.25;4947979;28;20070;-67
2022/07/24 05:12:10;;;;;;;9.48;6.10;;;;;;;19.02;64.71;99908.25;4951853;28;20061;-67
2022/07/24 05:14:36;;;;;;;9.40;5.45;;;;;;;19.07;63.75;99906.91;4951641;28;20630;-67
2022/07/24 05:17:03;;;;;;;6.82;5.38;;;;;;;19.15;63.20;99902.75;4947564;28;20764;-68
2022/07/24 05:19:29;;;;;;;8.35;5.75;;;;;;;19.22;63.92;99903.94;4923715;28;20049;-67
2022/07/24 05:21:57;;;;;;;7.63;5.43;;;;;;;19.27;64.05;99907.06;4924000;28;20053;-67
2022/07/24 05:24:25;;;;;;;7.05;5.13;;;;;;;19.32;64.21;99910.22;4923497;28;20427;-67
2022/07/24 05:26:51;;;;;;;6.97;5.60;;;;;;;19.39;64.11;99916.72;4924130;28;20567;-67
2022/07/24 05:29:18;;;;;;;9.30;5.38;;;;;;;19.45;63.97;99913.56;4927341;28;20067;-66
2022/07/24 05:31:45;;;;;;;7.03;6.30;;;;;;;19.47;63.92;99913.44;4928595;28;20764;-66
2022/07/24 05:34:11;;;;;;;8.02;5.20;;;;;;;19.47;64.18;99911.59;4935318;28;20057;-66
2022/07/24 05:36:38;;;;;;;13.25;5.32;;;;;;;19.49;64.63;99909.66;4935683;28;20049;-66
2022/07/24 05:39:06;;;;;;;7.03;5.68;;;;;;;19.54;64.36;99914.59;4934972;28;20559;-66
2022/07/24 05:41:33;;;;;;;9.15;6.32;;;;;;;19.64;63.64;99911.97;4935539;28;20634;-66
2022/07/24 05:43:59;;;;;;;9.55;6.15;;;;;;;19.70;63.31;99911.50;4934713;28;20436;-66
2022/07/24 05:46:26;;;;;;;6.90;5.70;;;;;;;19.78;62.99;99917.03;4934831;28;20515;-66
2022/07/24 05:48:52;;;;;;;12.43;7.53;;;;;;;19.84;62.68;99915.69;4934834;28;20049;-66
2022/07/24 05:51:19;;;;;;;7.90;6.63;;;;;;;19.88;62.64;99922.44;4935020;28;20057;-66
2022/07/24 05:53:45;;;;;;;10.25;5.53;;;;;;;19.94;62.77;99917.44;4935064;28;20451;-67
2022/07/24 05:56:13;;;;;;;7.78;4.82;;;;;;;20.03;62.50;99917.59;4930066;28;20058;-66
2022/07/24 05:58:40;;;;;;;8.45;6.35;;;;;;;20.12;61.72;99922.16;4933877;28;20065;-66
2022/07/24 06:01:07;;;;;;;7.20;6.50;;;;;;;20.16;61.31;99920.94;4934943;28;20053;-66
2022/07/24 06:03:33;;;;;;;9.57;7.07;;;;;;;20.24;60.08;99917.56;4934627;28;20531;-66
2022/07/24 06:06:00;;;;;;;8.50;5.88;;;;;;;20.31;59.38;99910.69;4934363;28;20064;-67
2022/07/24 06:08:26;;;;;;;9.68;6.30;;;;;;;20.41;57.84;99913.41;4951764;28;20076;-67
2022/07/24 06:10:53;;;;;;;8.13;5.80;;;;;;;20.49;56.89;99918.94;4939550;28;20059;-66
2022/07/24 06:13:21;;;;;;;7.38;5.95;;;;;;;20.58;56.62;99918.16;4945411;28;20049;-66
2022/07/24 06:15:47;;;;;;;7.60;5.95;;;;;;;20.67;56.23;99914.63;4917855;28;20487;-66
2022/07/24 06:18:14;;;;;;;7.38;6.28;;;;;;;20.78;55.68;99919.06;4931192;28;20049;-66
2022/07/24 06:20:42;;;;;;;9.73;6.40;;;;;;;20.86;55.14;99919.19;4912583;28;20099;-66
2022/07/24 06:23:08;;;;;;;10.45;6.55;;;;;;;20.94;55.34;99918.50;4916459;28;20049;-66
2022/07/24 06:25:35;;;;;;;7.90;5.93;;;;;;;21.04;54.92;99922.03;4916151;28;20152;-66
2022/07/24 06:28:02;;;;;;;9.75;6.47;;;;;;;21.17;54.93;99919.09;4916143;28;20061;-66
2022/07/24 06:30:30;;;;;;;8.85;6.05;;;;;;;21.28;55.04;99920.78;4915593;28;20139;-66
2022/07/24 06:32:58;;;;;;;11.48;7.10;;;;;;;21.33;54.30;99916.69;4915903;28;20049;-66
2022/07/24 06:35:25;;;;;;;6.78;5.63;;;;;;;21.41;54.00;99914.19;4915503;28;20192;-66
2022/07/24 06:37:51;;;;;;;8.52;6.28;;;;;;;21.50;53.64;99917.00;4915649;28;20058;-66
2022/07/24 06:40:19;;;;;;;9.60;6.70;;;;;;;21.56;53.13;99911.06;4915293;28;20064;-66
2022/07/24 06:42:48;;;;;;;7.57;6.63;;;;;;;21.62;53.50;99916.69;4915571;28;20058;-66
2022/07/24 06:45:15;;;;;;;10.10;7.00;;;;;;;21.68;52.84;99915.28;4915417;28;20053;-66
2022/07/24 06:47:43;;;;;;;8.05;6.35;;;;;;;21.79;52.55;99916.97;4915196;28;20065;-65
2022/07/24 06:50:10;;;;;;;8.30;6.75;;;;;;;21.85;52.38;99916.38;4915279;28;20049;-64
2022/07/24 06:52:36;;;;;;;8.85;5.97;;;;;;;21.90;52.29;99915.94;4930099;28;20050;-66
2022/07/24 06:55:04;;;;;;;8.52;6.75;;;;;;;21.98;52.27;99916.94;4933991;28;20062;-65
2022/07/24 06:57:30;;;;;;;8.82;7.15;;;;;;;22.00;51.76;99919.44;4934490;28;20076;-67
2022/07/24 06:59:57;;;;;;;8.55;6.30;;;;;;;22.09;52.25;99913.19;4934326;28;20068;-66
2022/07/24 07:02:23;;;;;;;8.27;6.13;;;;;;;22.20;52.11;99917.56;4934644;28;20075;-66
2022/07/24 07:04:52;;;;;;;8.63;6.60;;;;;;;22.26;51.87;99908.94;4934151;28;20111;-66
2022/07/24 07:07:18;;;;;;;6.88;5.72;;;;;;;22.36;51.53;99920.47;4934132;28;20528;-66
2022/07/24 07:09:45;;;;;;;9.40;7.13;;;;;;;22.40;51.38;99921.06;4932972;28;20069;-67
2022/07/24 07:12:12;;;;;;;7.72;6.03;;;;;;;22.51;51.48;99929.75;4934174;28;20061;-67
2022/07/24 07:14:39;;;;;;;8.35;5.82;;;;;;;22.61;51.32;99926.16;4930036;28;20449;-65
2022/07/24 07:17:05;;;;;;;6.93;6.22;;;;;;;22.73;50.96;99931.19;4929745;28;20049;-65
2022/07/24 07:19:32;;;;;;;10.48;6.53;;;;;;;22.82;50.42;99937.50;4928812;28;20084;-65
2022/07/24 07:22:00;;;;;;;7.50;6.57;;;;;;;22.90;50.12;99934.91;4946281;28;20477;-66
2022/07/24 07:24:26;;;;;;;7.68;6.43;;;;;;;23.12;50.26;99940.88;4942487;28;20095;-65
2022/07/24 07:26:53;;;;;;;7.88;6.95;;;;;;;23.34;49.31;99939.59;4924971;28;20045;-68
2022/07/24 07:29:20;;;;;;;10.20;6.57;;;;;;;23.56;49.07;99941.78;4915245;28;20140;-65
2022/07/24 07:31:46;;;;;;;8.07;6.00;;;;;;;23.83;48.65;99936.50;4915447;28;20057;-66
2022/07/24 07:34:13;;;;;;;9.32;5.65;;;;;;;24.47;47.76;99937.06;4914369;28;20665;-66
2022/07/24 07:36:39;;;;;;;6.07;5.47;;;;;;;25.18;45.80;99933.06;4914465;28;20853;-67
2022/07/24 07:39:07;;;;;;;5.88;5.28;;;;;;;25.32;44.94;99940.50;4914450;28;20062;-66
2022/07/24 07:41:34;;;;;;;9.13;6.47;;;;;;;25.35;46.31;99934.81;4912241;28;20058;-49
2022/07/24 07:44:01;;;;;;;11.55;5.18;;;;;;;25.51;45.41;99944.75;4920934;28;20153;-47
2022/07/24 07:46:27;;;;;;;8.32;6.03;;;;;;;25.56;44.73;99941.56;4938419;28;20113;-51
2022/07/24 07:48:54;;;;;;;5.70;5.20;;;;;;;25.54;44.78;99940.88;4926043;28;20088;-54
2022/07/24 07:51:21;;;;;;;8.02;6.15;;;;;;;25.61;44.59;99939.19;4929423;28;20063;-55
2022/07/24 07:53:48;;;;;;;9.15;5.55;;;;;;;25.59;44.23;99923.13;4932440;28;20532;-54
2022/07/24 07:56:16;;;;;;;7.82;6.50;;;;;;;25.63;44.28;99923.66;4931949;28;20049;-52
2022/07/24 07:58:43;;;;;;;8.82;6.43;;;;;;;25.64;44.50;99922.63;4932818;28;20145;-54
2022/07/24 08:01:09;;;;;;;8.82;5.82;;;;;;;25.69;44.41;99920.25;4957383;28;20061;-51
2022/07/24 08:03:36;;;;;;;7.72;5.68;;;;;;;25.71;43.82;99920.94;4929808;28;20045;-51
2022/07/24 08:06:03;;;;;;;6.40;5.63;;;;;;;25.79;43.96;99920.09;4932666;28;20056;-52
2022/07/24 08:08:30;;;;;;;6.30;5.70;;;;;;;25.82;43.63;99917.91;4939231;28;20060;-54
2022/07/24 08:10:57;;;;;;;8.60;5.55;;;;;;;25.83;42.86;99913.34;4951585;28;20062;-51
2022/07/24 08:13:26;;;;;;;12.88;7.03;;;;;;;25.97;44.59;99912.69;4952246;28;20065;-55
2022/07/24 08:15:52;;;;;;;9.75;6.20;;;;;;;26.27;44.03;99912.94;4948580;28;20072;-54
2022/07/24 08:18:19;;;;;;;8.32;6.72;;;;;;;26.55;43.00;99911.47;4955543;28;20050;-52
2022/07/24 08:20:45;;;;;;;10.25;6.10;;;;;;;26.80;41.95;99908.66;4956141;28;20054;-55
2022/07/24 08:23:12;;;;;;;7.85;5.85;;;;;;;26.89;41.66;99904.06;4959096;28;20046;-54
2022/07/24 08:25:38;;;;;;;9.65;6.18;;;;;;;26.86;42.18;99907.97;4958061;28;20053;-51
2022/07/24 08:28:05;;;;;;;8.23;6.38;;;;;;;26.80;42.00;99914.06;4976626;28;20143;-49
2022/07/24 08:30:33;;;;;;;15.98;6.70;;;;;;;26.85;41.86;99914.41;4987696;28;20295;-50
2022/07/24 08:33:00;;;;;;;8.20;6.47;;;;;;;26.83;41.58;99918.28;4978023;28;20053;-50
2022/07/24 08:35:26;;;;;;;10.23;6.25;;;;;;;26.84;41.82;99912.69;4977745;28;20055;-49
2022/07/24 08:37:53;;;;;;;10.68;6.75;;;;;;;26.76;41.82;99915.47;4953757;28;20056;-48
2022/07/24 08:40:19;;;;;;;7.57;6.35;;;;;;;26.77;41.72;99904.44;4977856;28;20053;-48
2022/07/24 08:42:46;;;;;;;8.15;6.35;;;;;;;26.68;41.88;99908.22;4978216;28;20504;-51
2022/07/24 08:45:13;;;;;;;8.15;5.70;;;;;;;26.74;42.22;99903.97;5026328;28;20112;-68
2022/07/24 08:47:42;;;;;;;8.13;6.60;;;;;;;26.71;42.08;99905.16;4960000;28;20069;-70
2022/07/24 08:50:10;;;;;;;8.25;6.22;;;;;;;26.73;42.01;99897.72;4949802;28;20056;-71
2022/07/24 08:52:38;;;;;;;8.25;7.30;;;;;;;26.88;42.17;99895.09;4937182;28;20530;-70
2022/07/24 08:55:06;;;;;;;9.15;6.30;;;;;;;27.00;41.67;99898.25;4958927;28;20566;-70
2022/07/24 08:57:33;;;;;;;8.40;6.35;;;;;;;27.12;41.96;99893.22;4933747;28;20487;-72
2022/07/24 09:00:00;;;;;;;10.05;6.55;;;;;;;27.50;41.03;99887.91;4958196;28;20049;-69
2022/07/24 09:02:28;;;;;;;9.75;6.68;;;;;;;27.91;40.26;99888.38;4934333;28;20536;-71
2022/07/24 09:05:02;;;;;;;9.45;6.35;;;;;;;28.39;39.33;99880.69;4961959;28;20097;-70
2022/07/24 09:07:30;;;;;;;9.07;7.67;;;;;;;28.67;39.09;99882.72;4960387;28;20424;-70
2022/07/24 09:10:01;;;;;;;8.23;6.15;;;;;;;29.05;37.90;99874.38;4960981;28;20795;-70
2022/07/24 09:12:33;;;;;;;6.88;6.18;;;;;;;29.53;37.17;99877.34;4961298;28;20064;-70
2022/07/24 09:15:00;;;;;;;9.82;6.80;;;;;;;30.03;35.62;99877.31;4961036;28;20087;-70
2022/07/24 09:17:27;;;;;;;8.75;5.80;;;;;;;30.26;35.48;99864.28;4960956;28;20610;-70
2022/07/24 09:19:56;;;;;;;8.85;6.05;;;;;;;30.43;35.05;99870.22;4936992;28;20063;-70
2022/07/24 09:22:37;;;;;;;10.80;5.40;;;;;;;30.88;34.33;99864.34;4956538;28;20124;-72
2022/07/24 09:25:12;;;;;;;11.45;6.10;;;;;;;30.89;34.17;99852.38;4941707;28;20054;-73
2022/07/24 09:27:41;;;;;;;7.13;6.05;;;;;;;30.99;34.09;99858.28;4915962;28;20114;-71
2022/07/24 09:30:09;;;;;;;9.00;5.03;;;;;;;31.58;33.29;99852.06;4943118;28;20069;-70
2022/07/24 09:32:36;;;;;;;6.15;5.45;;;;;;;32.15;32.08;99851.56;4944340;28;20604;-70
2022/07/24 09:35:03;;;;;;;7.22;6.00;;;;;;;32.60;30.90;99855.16;4941603;28;20248;-71
2022/07/24 09:37:31;;;;;;;11.48;6.30;;;;;;;32.96;30.10;99847.38;4952261;28;20042;-71
2022/07/24 09:40:10;;;;;;;7.40;6.65;;;;;;;33.27;30.01;99846.56;4966565;28;20490;-71
2022/07/24 09:42:39;;;;;;;7.40;6.00;;;;;;;33.62;28.92;99843.34;4942147;28;20057;-71
2022/07/24 09:45:10;;;;;;;7.43;6.03;;;;;;;33.67;29.25;99847.09;4941825;28;20061;-72
2022/07/24 09:47:38;;;;;;;6.95;6.25;;;;;;;33.58;29.00;99850.34;4941624;28;20057;-71
2022/07/24 09:50:13;;;;;;;9.45;6.15;;;;;;;33.35;28.92;99847.13;4915345;28;20049;-71
2022/07/24 09:52:42;;;;;;;6.22;5.43;;;;;;;33.40;28.80;99841.00;4942387;28;20050;-71
2022/07/24 09:55:25;;;;;;;7.43;6.65;;;;;;;33.90;27.89;99829.19;4944585;28;20053;-71
2022/07/24 09:57:52;;;;;;;9.07;6.05;;;;;;;34.05;27.79;99837.84;4951092;28;20126;-71
2022/07/24 10:00:19;;;;;;;6.25;5.63;;;;;;;34.20;27.23;99824.63;4945211;28;20056;-71
2022/07/24 10:02:47;;;;;;;7.85;6.38;;;;;;;34.42;26.19;99824.97;4989345;28;20092;-72
2022/07/24 10:05:15;;;;;;;7.97;5.80;;;;;;;34.71;25.91;99827.16;4968342;28;20053;-73
2022/07/24 10:07:43;;;;;;;6.07;5.22;;;;;;;34.81;25.73;99816.47;4936791;28;20057;-71
2022/07/24 10:10:10;;;;;;;9.82;6.05;;;;;;;34.78;25.65;99811.44;4962951;28;20054;-73
2022/07/24 10:12:39;;;;;;;10.43;6.13;;;;;;;35.13;26.26;99811.56;4961551;28;20057;-74
2022/07/24 10:15:07;;;;;;;9.05;5.70;;;;;;;35.07;26.15;99815.22;4933854;28;20068;-73
2022/07/24 10:17:54;;;;;;;7.45;5.28;;;;;;;35.05;26.08;99817.38;4942044;28;20092;-72
2022/07/24 10:20:38;;;;;;;6.30;5.40;;;;;;;35.06;25.67;99813.56;4936986;28;20053;-72
2022/07/24 10:23:06;;;;;;;;;;;;;;;35.08;25.69;99808.69;4938490;28;20054;-70
2022/07/24 10:25:52;;;;;;;6.60;5.95;;;;;;;35.39;24.98;99812.19;4935890;28;19931;-71
2022/07/24 10:28:35;;;;;;;5.80;5.20;;;;;;;35.29;23.86;99801.81;4960454;28;20059;-71
2022/07/24 10:31:03;;;;;;;9.02;5.70;;;;;;;35.11;25.07;99805.47;4934942;28;20053;-70
2022/07/24 10:33:30;;;;;;;6.00;4.97;;;;;;;35.19;25.23;99804.31;4959880;28;20091;-70
2022/07/24 10:36:01;;;;;;;5.40;4.90;;;;;;;35.00;24.85;99804.38;4960460;28;20057;-71
2022/07/24 10:38:37;;;;;;;6.28;5.32;;;;;;;35.23;25.09;99800.84;4960392;28;20144;-71
2022/07/24 10:41:10;;;;;;;5.45;4.95;;;;;;;35.47;25.04;99790.72;4934560;28;20065;-70
2022/07/24 10:43:38;;;;;;;8.77;6.33;;;;;;;35.38;25.27;99786.66;4937309;28;20092;-72
2022/07/24 10:46:13;;;;;;;6.93;5.63;;;;;;;35.52;25.10;99794.66;4959767;28;20337;-72
2022/07/24 10:48:41;;;;;;;8.13;5.68;;;;;;;35.32;24.63;99793.13;4933115;28;20057;-72
2022/07/24 10:51:10;;;;;;;7.97;5.20;;;;;;;35.50;24.18;99783.09;4946293;28;20060;-72
2022/07/24 10:53:52;;;;;;;7.35;5.85;;;;;;;35.52;24.57;99784.53;4931835;28;20148;-72
2022/07/24 10:56:22;;;;;;;8.27;5.22;;;;;;;35.67;24.62;99775.84;4934836;28;20144;-74
2022/07/24 10:58:59;;;;;;;6.00;5.05;;;;;;;35.76;24.44;99774.38;4961319;28;20390;-72
2022/07/24 11:01:37;;;;;;;6.70;5.13;;;;;;;35.41;25.37;99771.66;5028740;28;20546;-73
2022/07/24 11:04:24;;;;;;;7.00;5.25;;;;;;;34.92;26.15;99771.00;5027691;28;20511;-72
2022/07/24 11:06:52;;;;;;;9.95;5.22;;;;;;;34.24;26.48;99763.94;5028405;28;20049;-70
2022/07/24 11:09:20;;;;;;;7.18;5.50;;;;;;;33.79;27.37;99759.63;5028067;28;20132;-70
2022/07/24 11:12:08;;;;;;;8.23;5.47;;;;;;;33.23;28.67;99758.75;5028022;28;20053;-72
2022/07/24 11:14:50;;;;;;;9.25;5.50;;;;;;;32.63;28.46;99756.44;5027549;28;20144;-71
2022/07/24 11:17:45;;;;;;;6.80;5.57;;;;;;;31.99;29.63;99760.13;5028045;28;20124;-69
2022/07/24 11:20:14;;;;;;;6.20;4.72;;;;;;;31.74;30.97;99755.34;5024477;28;20507;-73
2022/07/24 11:22:44;;;;;;;6.40;4.80;;;;;;;31.56;31.23;99755.22;5027566;28;20061;-70
2022/07/24 11:25:17;;;;;;;5.32;4.53;;;;;;;31.54;30.56;99751.84;5026152;28;20104;-69
2022/07/24 11:28:13;;;;;;;7.17;4.80;;;;;;;31.66;30.25;99744.69;5027447;28;20061;-69
2022/07/24 11:30:44;;;;;;;6.63;5.53;;;;;;;31.27;29.47;99753.75;5027644;28;20077;-71
2022/07/24 11:33:12;;;;;;;7.25;4.90;;;;;;;30.95;30.17;99742.66;5027820;28;20087;-70
2022/07/24 11:35:39;;;;;;;8.10;5.28;;;;;;;30.95;30.72;99743.50;5027099;28;20049;-71